»·PEaware :: N35VT KRDD-KSFO

N35VT :: KRDD-KSFO

FLIGHT INFORMATION

Flight Status: Arrived
Operator: Privately registered:
United States
More flights under this callsign
Pilot: Jake W. (30069)
Aircraft: Unknown
(LEG2)
More flights by this aircraft type
Origin: KRDD Redding Mun
United States
Destination: KSFO San Francisco Intl
United States
More flights between these airports :: More routes between these airports
Route: HOMAN3 RBL V23 SAC V334 SUNOL ARCHI
File this flight plan on PilotEdge
Remarks:
Altitude:
(Current/Filed)
7,000ft
Speed:
(Current/Filed)
260kts
Departed: 18-Sep-20 04:17 PM
Arrived: 18-Sep-20 05:16 PM
Distance/Time
Traveled:
173nm/0:59
Distance/Time
To Go:
Arrived

Flight Plot

Page will automatically refresh every two minutes.

Flight plan parsing failed; only flown route is shown


Map Options




Map Legend


Flown Route
Filed Route
Departure Airport
Arrival Airport
Navaid (VOR, NDB)
Fix

Horizontal Profiles

Position Reports

Time Latitude Longitude Heading Altitude Ground
Speed
18-Sep-20 16:05 40.521209 -122.291350 178 498ft 0kts
18-Sep-20 16:06 40.521209 -122.291350 178 498ft 0kts
18-Sep-20 16:07 40.521209 -122.291350 178 498ft 0kts
18-Sep-20 16:08 40.521209 -122.291350 178 498ft 0kts
18-Sep-20 16:09 40.521209 -122.291350 178 498ft 0kts
18-Sep-20 16:10 40.521209 -122.291350 178 498ft 0kts
18-Sep-20 16:11 40.520284 -122.291451 243 498ft 7kts
18-Sep-20 16:12 40.520265 -122.293708 271 498ft 0kts
18-Sep-20 16:13 40.520265 -122.293708 271 498ft 0kts
18-Sep-20 16:14 40.520265 -122.293708 271 498ft 0kts
18-Sep-20 16:15 40.519387 -122.294842 182 501ft 34kts
18-Sep-20 16:16 40.485060 -122.293469 148 2078ft 134kts
18-Sep-20 16:17 40.476840 -122.242735 123 3888ft 155kts
18-Sep-20 16:18 40.450721 -122.197351 131 6034ft 160kts
18-Sep-20 16:19 40.419757 -122.145661 138 7016ft 219kts
18-Sep-20 16:20 40.356236 -122.147771 190 7021ft 250kts
18-Sep-20 16:21 40.286879 -122.165355 194 7027ft 255kts
18-Sep-20 16:22 40.219719 -122.189039 196 7025ft 246kts
18-Sep-20 16:23 40.154965 -122.216653 199 7026ft 244kts
18-Sep-20 16:24 40.090220 -122.225953 158 7023ft 247kts
18-Sep-20 16:25 40.026908 -122.189717 158 7026ft 248kts
18-Sep-20 16:26 39.963476 -122.154368 159 7026ft 249kts
18-Sep-20 16:27 39.899124 -122.120905 160 7026ft 248kts
18-Sep-20 16:28 39.834992 -122.087722 160 7028ft 249kts
18-Sep-20 16:29 39.770464 -122.054376 160 7031ft 251kts
18-Sep-20 16:30 39.705762 -122.021011 160 7035ft 249kts
18-Sep-20 16:31 39.641515 -121.987979 160 7041ft 248kts
18-Sep-20 16:32 39.577424 -121.955141 160 7044ft 248kts
18-Sep-20 16:33 39.513215 -121.922244 160 7045ft 248kts
18-Sep-20 16:34 39.449143 -121.889423 160 7045ft 248kts
18-Sep-20 16:35 39.384928 -121.856538 160 7010ft 249kts
18-Sep-20 16:36 39.320373 -121.825023 171 7006ft 247kts
18-Sep-20 16:37 39.252618 -121.809884 171 7003ft 248kts
18-Sep-20 16:38 39.185252 -121.793427 168 6999ft 247kts
18-Sep-20 16:39 39.118595 -121.771411 167 6999ft 247kts
18-Sep-20 16:40 39.051862 -121.749348 167 6999ft 247kts
18-Sep-20 16:41 38.985256 -121.727459 167 6996ft 247kts
18-Sep-20 16:42 38.919039 -121.705802 167 6992ft 245kts
18-Sep-20 16:43 38.853140 -121.684277 167 6992ft 245kts
18-Sep-20 16:45 38.787011 -121.663012 167 6992ft 244kts
18-Sep-20 16:46 38.721386 -121.642350 167 6993ft 243kts
18-Sep-20 16:47 38.655726 -121.621586 167 6993ft 243kts
18-Sep-20 16:48 38.590252 -121.600508 167 6994ft 243kts
18-Sep-20 16:49 38.524520 -121.578537 167 6943ft 245kts
18-Sep-20 16:50 38.458640 -121.556448 169 6939ft 244kts
18-Sep-20 16:51 38.392628 -121.569512 190 6940ft 241kts
18-Sep-20 16:52 38.327770 -121.589716 195 6944ft 240kts
18-Sep-20 16:53 38.262571 -121.609417 195 6949ft 240kts
18-Sep-20 16:54 38.197485 -121.628158 195 6952ft 241kts
18-Sep-20 16:55 38.131635 -121.646570 195 6954ft 242kts
18-Sep-20 16:56 38.065568 -121.664739 195 6955ft 243kts
18-Sep-20 16:57 37.999836 -121.683792 196 6966ft 242kts
18-Sep-20 16:58 37.934393 -121.703707 197 6977ft 242kts
18-Sep-20 16:58 37.879734 -121.721276 197 6983ft 243kts
18-Sep-20 17:00 37.803327 -121.745785 197 6982ft 243kts
18-Sep-20 17:01 37.738040 -121.768259 202 6982ft 242kts
18-Sep-20 17:02 37.674768 -121.797168 201 6982ft 242kts
18-Sep-20 17:02 37.621461 -121.820200 201 6982ft 242kts
18-Sep-20 17:03 37.557454 -121.847659 201 6984ft 243kts
18-Sep-20 17:05 37.496128 -121.902111 252 6560ft 252kts
18-Sep-20 17:05 37.496817 -121.976345 274 5659ft 259kts
18-Sep-20 17:06 37.502452 -122.067979 274 4168ft 268kts
18-Sep-20 17:07 37.523188 -122.142820 298 3010ft 167kts
18-Sep-20 17:08 37.544154 -122.192011 297 2164ft 194kts
18-Sep-20 17:09 37.567740 -122.248284 297 1812ft 137kts
18-Sep-20 17:10 37.579898 -122.277611 295 1475ft 85kts
18-Sep-20 17:11 37.591364 -122.304064 296 1007ft 87kts
18-Sep-20 17:12 37.602716 -122.331014 295 528ft 87kts
18-Sep-20 17:13 37.613834 -122.357788 294 73ft 78kts
18-Sep-20 17:14 37.622396 -122.378433 299 21ft 45kts
18-Sep-20 17:15 37.624734 -122.381281 356 19ft 2kts
18-Sep-20 17:16 37.628660 -122.382609 27 9ft 14kts

Navigation Log

Ident Type
Flight plan parsing failed, navigation log unavailable